sensor_id;sensor_type;location;lat;lon;timestamp;temperature;humidity
20492;DHT22;10404;51.468;6.762;2023-08-07T00:01:01;15.00;73.00
20492;DHT22;10404;51.468;6.762;2023-08-07T00:03:27;14.90;73.10
20492;DHT22;10404;51.468;6.762;2023-08-07T00:05:53;14.90;73.20
20492;DHT22;10404;51.468;6.762;2023-08-07T00:08:20;14.90;73.30
20492;DHT22;10404;51.468;6.762;2023-08-07T00:10:46;14.90;73.30
20492;DHT22;10404;51.468;6.762;2023-08-07T00:13:12;14.90;73.30
20492;DHT22;10404;51.468;6.762;2023-08-07T00:15:38;14.90;73.20
20492;DHT22;10404;51.468;6.762;2023-08-07T00:18:04;14.90;73.30
20492;DHT22;10404;51.468;6.762;2023-08-07T00:20:29;14.80;73.30
20492;DHT22;10404;51.468;6.762;2023-08-07T00:22:55;14.80;73.40
20492;DHT22;10404;51.468;6.762;2023-08-07T00:25:21;14.80;73.40
20492;DHT22;10404;51.468;6.762;2023-08-07T00:27:46;14.80;73.30
20492;DHT22;10404;51.468;6.762;2023-08-07T00:30:12;14.80;73.30
20492;DHT22;10404;51.468;6.762;2023-08-07T00:32:37;14.80;73.30
20492;DHT22;10404;51.468;6.762;2023-08-07T00:35:04;14.80;73.50
20492;DHT22;10404;51.468;6.762;2023-08-07T00:37:30;14.70;73.50
20492;DHT22;10404;51.468;6.762;2023-08-07T00:39:55;14.70;73.40
20492;DHT22;10404;51.468;6.762;2023-08-07T00:42:21;14.70;73.40
20492;DHT22;10404;51.468;6.762;2023-08-07T00:44:46;14.70;73.60
20492;DHT22;10404;51.468;6.762;2023-08-07T00:47:12;14.70;73.40
20492;DHT22;10404;51.468;6.762;2023-08-07T00:49:37;14.70;73.60
20492;DHT22;10404;51.468;6.762;2023-08-07T00:52:04;14.70;73.70
20492;DHT22;10404;51.468;6.762;2023-08-07T00:54:30;14.60;73.80
20492;DHT22;10404;51.468;6.762;2023-08-07T00:57:00;14.60;73.90
20492;DHT22;10404;51.468;6.762;2023-08-07T00:59:28;14.60;73.80
20492;DHT22;10404;51.468;6.762;2023-08-07T01:01:54;14.60;73.80
20492;DHT22;10404;51.468;6.762;2023-08-07T01:04:19;14.60;73.90
20492;DHT22;10404;51.468;6.762;2023-08-07T01:06:45;14.60;73.80
20492;DHT22;10404;51.468;6.762;2023-08-07T01:09:10;14.60;73.90
20492;DHT22;10404;51.468;6.762;2023-08-07T01:11:44;14.50;73.80
20492;DHT22;10404;51.468;6.762;2023-08-07T01:14:47;14.50;73.90
20492;DHT22;10404;51.468;6.762;2023-08-07T01:17:16;14.50;73.80
20492;DHT22;10404;51.468;6.762;2023-08-07T01:19:42;14.50;73.80
20492;DHT22;10404;51.468;6.762;2023-08-07T01:22:09;14.50;73.70
20492;DHT22;10404;51.468;6.762;2023-08-07T01:24:39;14.50;73.80
20492;DHT22;10404;51.468;6.762;2023-08-07T01:32:28;14.50;73.90
20492;DHT22;10404;51.468;6.762;2023-08-07T01:34:56;14.50;73.90
20492;DHT22;10404;51.468;6.762;2023-08-07T01:37:23;14.40;73.90
20492;DHT22;10404;51.468;6.762;2023-08-07T01:39:50;14.40;73.90
20492;DHT22;10404;51.468;6.762;2023-08-07T01:42:16;14.40;74.00
20492;DHT22;10404;51.468;6.762;2023-08-07T01:44:42;14.40;74.00
20492;DHT22;10404;51.468;6.762;2023-08-07T01:47:08;14.40;74.10
20492;DHT22;10404;51.468;6.762;2023-08-07T01:49:33;14.40;74.20
20492;DHT22;10404;51.468;6.762;2023-08-07T01:51:59;14.40;74.30
20492;DHT22;10404;51.468;6.762;2023-08-07T01:54:24;14.30;74.20
20492;DHT22;10404;51.468;6.762;2023-08-07T01:56:50;14.30;74.20
20492;DHT22;10404;51.468;6.762;2023-08-07T01:59:15;14.30;74.30
20492;DHT22;10404;51.468;6.762;2023-08-07T02:01:41;14.30;74.30
20492;DHT22;10404;51.468;6.762;2023-08-07T02:04:06;14.30;74.40
20492;DHT22;10404;51.468;6.762;2023-08-07T02:06:32;14.30;74.40
20492;DHT22;10404;51.468;6.762;2023-08-07T02:08:58;14.30;74.40
20492;DHT22;10404;51.468;6.762;2023-08-07T02:11:23;14.20;74.50
20492;DHT22;10404;51.468;6.762;2023-08-07T02:13:49;14.30;74.60
20492;DHT22;10404;51.468;6.762;2023-08-07T02:16:14;14.20;74.60
20492;DHT22;10404;51.468;6.762;2023-08-07T02:18:40;14.20;74.60
20492;DHT22;10404;51.468;6.762;2023-08-07T02:21:05;14.20;74.50
20492;DHT22;10404;51.468;6.762;2023-08-07T02:23:31;14.20;74.80
20492;DHT22;10404;51.468;6.762;2023-08-07T02:25:56;14.20;74.80
20492;DHT22;10404;51.468;6.762;2023-08-07T02:28:22;14.20;74.90
20492;DHT22;10404;51.468;6.762;2023-08-07T02:30:47;14.20;75.10
20492;DHT22;10404;51.468;6.762;2023-08-07T02:33:16;14.20;75.10
20492;DHT22;10404;51.468;6.762;2023-08-07T02:35:42;14.20;75.10
20492;DHT22;10404;51.468;6.762;2023-08-07T02:38:07;14.10;75.30
20492;DHT22;10404;51.468;6.762;2023-08-07T02:40:33;14.10;75.30
20492;DHT22;10404;51.468;6.762;2023-08-07T02:42:58;14.10;75.20
20492;DHT22;10404;51.468;6.762;2023-08-07T02:45:24;14.10;75.20
20492;DHT22;10404;51.468;6.762;2023-08-07T02:47:49;14.10;75.30
20492;DHT22;10404;51.468;6.762;2023-08-07T02:50:15;14.10;75.30
20492;DHT22;10404;51.468;6.762;2023-08-07T02:52:41;14.00;75.40
20492;DHT22;10404;51.468;6.762;2023-08-07T02:55:06;14.00;75.40
20492;DHT22;10404;51.468;6.762;2023-08-07T02:57:32;14.00;75.40
20492;DHT22;10404;51.468;6.762;2023-08-07T02:59:58;14.00;75.40
20492;DHT22;10404;51.468;6.762;2023-08-07T03:02:23;14.00;75.40
20492;DHT22;10404;51.468;6.762;2023-08-07T03:04:49;14.00;75.40
20492;DHT22;10404;51.468;6.762;2023-08-07T03:07:14;14.00;75.40
20492;DHT22;10404;51.468;6.762;2023-08-07T03:09:40;14.00;75.40
20492;DHT22;10404;51.468;6.762;2023-08-07T03:12:05;14.00;75.40
20492;DHT22;10404;51.468;6.762;2023-08-07T03:14:31;14.00;75.40
20492;DHT22;10404;51.468;6.762;2023-08-07T03:16:57;13.90;75.40
20492;DHT22;10404;51.468;6.762;2023-08-07T03:19:23;13.90;75.50
20492;DHT22;10404;51.468;6.762;2023-08-07T03:21:49;13.90;75.50
20492;DHT22;10404;51.468;6.762;2023-08-07T03:24:14;13.90;75.50
20492;DHT22;10404;51.468;6.762;2023-08-07T03:26:40;13.90;75.60
20492;DHT22;10404;51.468;6.762;2023-08-07T03:29:06;13.90;75.50
20492;DHT22;10404;51.468;6.762;2023-08-07T03:31:31;13.90;75.50
20492;DHT22;10404;51.468;6.762;2023-08-07T03:33:57;13.90;75.60
20492;DHT22;10404;51.468;6.762;2023-08-07T03:36:23;13.90;75.70
20492;DHT22;10404;51.468;6.762;2023-08-07T03:38:49;13.90;75.70
20492;DHT22;10404;51.468;6.762;2023-08-07T03:41:14;13.90;75.70
20492;DHT22;10404;51.468;6.762;2023-08-07T03:43:40;13.90;75.60
20492;DHT22;10404;51.468;6.762;2023-08-07T03:46:06;13.90;75.50
20492;DHT22;10404;51.468;6.762;2023-08-07T03:48:31;13.90;75.50
20492;DHT22;10404;51.468;6.762;2023-08-07T03:51:06;13.90;75.50
20492;DHT22;10404;51.468;6.762;2023-08-07T03:53:36;13.90;75.50
20492;DHT22;10404;51.468;6.762;2023-08-07T03:56:02;13.80;75.60
20492;DHT22;10404;51.468;6.762;2023-08-07T03:58:28;13.80;75.60
20492;DHT22;10404;51.468;6.762;2023-08-07T04:00:53;13.80;75.80
20492;DHT22;10404;51.468;6.762;2023-08-07T04:03:22;13.80;75.80
20492;DHT22;10404;51.468;6.762;2023-08-07T04:05:52;13.80;75.70
20492;DHT22;10404;51.468;6.762;2023-08-07T04:08:19;13.80;75.80
20492;DHT22;10404;51.468;6.762;2023-08-07T04:10:44;13.70;75.80
20492;DHT22;10404;51.468;6.762;2023-08-07T04:13:10;13.80;75.80
20492;DHT22;10404;51.468;6.762;2023-08-07T04:15:35;13.80;75.70
20492;DHT22;10404;51.468;6.762;2023-08-07T04:18:01;13.70;75.80
20492;DHT22;10404;51.468;6.762;2023-08-07T04:20:26;13.70;75.80
20492;DHT22;10404;51.468;6.762;2023-08-07T04:22:52;13.70;75.90
20492;DHT22;10404;51.468;6.762;2023-08-07T04:25:17;13.70;75.80
20492;DHT22;10404;51.468;6.762;2023-08-07T04:27:43;13.70;75.90
20492;DHT22;10404;51.468;6.762;2023-08-07T04:30:09;13.70;75.90
20492;DHT22;10404;51.468;6.762;2023-08-07T04:32:34;13.70;75.80
20492;DHT22;10404;51.468;6.762;2023-08-07T04:35:00;13.70;75.90
20492;DHT22;10404;51.468;6.762;2023-08-07T04:37:26;13.60;75.90
20492;DHT22;10404;51.468;6.762;2023-08-07T04:39:51;13.60;75.90
20492;DHT22;10404;51.468;6.762;2023-08-07T04:42:17;13.60;75.90
20492;DHT22;10404;51.468;6.762;2023-08-07T04:44:42;13.60;75.90
20492;DHT22;10404;51.468;6.762;2023-08-07T04:47:08;13.60;75.90
20492;DHT22;10404;51.468;6.762;2023-08-07T04:49:33;13.60;75.90
20492;DHT22;10404;51.468;6.762;2023-08-07T04:51:59;13.60;75.90
20492;DHT22;10404;51.468;6.762;2023-08-07T04:54:25;13.60;75.90
20492;DHT22;10404;51.468;6.762;2023-08-07T04:56:50;13.60;75.90
20492;DHT22;10404;51.468;6.762;2023-08-07T04:59:16;13.60;76.00
20492;DHT22;10404;51.468;6.762;2023-08-07T05:01:41;13.50;76.00
20492;DHT22;10404;51.468;6.762;2023-08-07T05:04:07;13.50;76.10
20492;DHT22;10404;51.468;6.762;2023-08-07T05:06:32;13.50;76.10
20492;DHT22;10404;51.468;6.762;2023-08-07T05:08:58;13.50;76.10
20492;DHT22;10404;51.468;6.762;2023-08-07T05:11:26;13.50;76.10
20492;DHT22;10404;51.468;6.762;2023-08-07T05:13:51;13.50;76.10
20492;DHT22;10404;51.468;6.762;2023-08-07T05:16:17;13.50;76.00
20492;DHT22;10404;51.468;6.762;2023-08-07T05:18:44;13.50;76.10
20492;DHT22;10404;51.468;6.762;2023-08-07T05:21:09;13.50;76.10
20492;DHT22;10404;51.468;6.762;2023-08-07T05:23:35;13.50;76.10
20492;DHT22;10404;51.468;6.762;2023-08-07T05:26:01;13.50;76.10
20492;DHT22;10404;51.468;6.762;2023-08-07T05:28:27;13.50;76.20
20492;DHT22;10404;51.468;6.762;2023-08-07T05:30:53;13.50;76.20
20492;DHT22;10404;51.468;6.762;2023-08-07T05:33:18;13.50;76.20
20492;DHT22;10404;51.468;6.762;2023-08-07T05:35:44;13.50;76.20
20492;DHT22;10404;51.468;6.762;2023-08-07T05:38:09;13.50;76.20
20492;DHT22;10404;51.468;6.762;2023-08-07T05:40:35;13.50;76.40
20492;DHT22;10404;51.468;6.762;2023-08-07T05:43:02;13.50;76.50
20492;DHT22;10404;51.468;6.762;2023-08-07T05:45:27;13.50;76.50
20492;DHT22;10404;51.468;6.762;2023-08-07T05:47:53;13.50;76.70
20492;DHT22;10404;51.468;6.762;2023-08-07T05:50:19;13.50;76.70
20492;DHT22;10404;51.468;6.762;2023-08-07T05:52:44;13.40;76.70
20492;DHT22;10404;51.468;6.762;2023-08-07T05:55:10;13.40;76.70
20492;DHT22;10404;51.468;6.762;2023-08-07T05:57:35;13.50;76.70
20492;DHT22;10404;51.468;6.762;2023-08-07T06:00:01;13.40;76.60
20492;DHT22;10404;51.468;6.762;2023-08-07T06:02:26;13.40;76.80
20492;DHT22;10404;51.468;6.762;2023-08-07T06:04:52;13.40;76.80
20492;DHT22;10404;51.468;6.762;2023-08-07T06:07:18;13.40;76.80
20492;DHT22;10404;51.468;6.762;2023-08-07T06:09:43;13.40;76.80
20492;DHT22;10404;51.468;6.762;2023-08-07T06:12:09;13.40;76.90
20492;DHT22;10404;51.468;6.762;2023-08-07T06:14:34;13.40;76.80
20492;DHT22;10404;51.468;6.762;2023-08-07T06:17:00;13.40;77.00
20492;DHT22;10404;51.468;6.762;2023-08-07T06:19:27;13.40;77.00
20492;DHT22;10404;51.468;6.762;2023-08-07T06:21:53;13.40;77.00
20492;DHT22;10404;51.468;6.762;2023-08-07T06:24:19;13.30;77.10
20492;DHT22;10404;51.468;6.762;2023-08-07T06:26:45;13.40;77.20
20492;DHT22;10404;51.468;6.762;2023-08-07T06:29:10;13.30;77.30
20492;DHT22;10404;51.468;6.762;2023-08-07T06:31:36;13.30;77.20
20492;DHT22;10404;51.468;6.762;2023-08-07T06:34:01;13.30;77.20
20492;DHT22;10404;51.468;6.762;2023-08-07T06:36:27;13.30;77.20
20492;DHT22;10404;51.468;6.762;2023-08-07T06:38:52;13.30;77.20
20492;DHT22;10404;51.468;6.762;2023-08-07T06:41:18;13.30;77.40
20492;DHT22;10404;51.468;6.762;2023-08-07T06:43:44;13.30;77.70
20492;DHT22;10404;51.468;6.762;2023-08-07T06:46:09;13.30;77.60
20492;DHT22;10404;51.468;6.762;2023-08-07T06:48:36;13.30;77.40
20492;DHT22;10404;51.468;6.762;2023-08-07T06:51:02;13.30;77.80
20492;DHT22;10404;51.468;6.762;2023-08-07T06:53:28;13.30;77.60
20492;DHT22;10404;51.468;6.762;2023-08-07T06:55:53;13.30;77.40
20492;DHT22;10404;51.468;6.762;2023-08-07T06:58:19;13.30;77.50
20492;DHT22;10404;51.468;6.762;2023-08-07T07:00:45;13.30;78.00
20492;DHT22;10404;51.468;6.762;2023-08-07T07:03:11;13.30;78.00
20492;DHT22;10404;51.468;6.762;2023-08-07T07:05:38;13.30;77.80
20492;DHT22;10404;51.468;6.762;2023-08-07T07:08:03;13.30;78.20
20492;DHT22;10404;51.468;6.762;2023-08-07T07:10:29;13.30;77.90
20492;DHT22;10404;51.468;6.762;2023-08-07T07:12:55;13.30;78.30
20492;DHT22;10404;51.468;6.762;2023-08-07T07:15:20;13.30;78.10
20492;DHT22;10404;51.468;6.762;2023-08-07T07:17:46;13.30;77.90
20492;DHT22;10404;51.468;6.762;2023-08-07T07:20:12;13.30;78.50
20492;DHT22;10404;51.468;6.762;2023-08-07T07:22:37;13.30;78.20
20492;DHT22;10404;51.468;6.762;2023-08-07T07:25:04;13.30;78.10
20492;DHT22;10404;51.468;6.762;2023-08-07T07:27:30;13.30;78.10
20492;DHT22;10404;51.468;6.762;2023-08-07T07:29:55;13.30;78.50
20492;DHT22;10404;51.468;6.762;2023-08-07T07:32:21;13.30;78.40
20492;DHT22;10404;51.468;6.762;2023-08-07T07:34:46;13.30;78.60
20492;DHT22;10404;51.468;6.762;2023-08-07T07:37:12;13.30;78.50
20492;DHT22;10404;51.468;6.762;2023-08-07T07:39:39;13.40;78.60
20492;DHT22;10404;51.468;6.762;2023-08-07T07:42:06;13.40;78.60
20492;DHT22;10404;51.468;6.762;2023-08-07T07:44:32;13.40;78.60
20492;DHT22;10404;51.468;6.762;2023-08-07T07:46:58;13.40;78.40
20492;DHT22;10404;51.468;6.762;2023-08-07T07:49:24;13.40;78.70
20492;DHT22;10404;51.468;6.762;2023-08-07T07:51:49;13.40;78.80
20492;DHT22;10404;51.468;6.762;2023-08-07T07:54:15;13.40;78.50
20492;DHT22;10404;51.468;6.762;2023-08-07T07:56:42;13.40;79.10
20492;DHT22;10404;51.468;6.762;2023-08-07T07:59:08;13.40;78.60
20492;DHT22;10404;51.468;6.762;2023-08-07T08:01:33;13.40;78.90
20492;DHT22;10404;51.468;6.762;2023-08-07T08:03:59;13.40;78.70
20492;DHT22;10404;51.468;6.762;2023-08-07T08:06:25;13.50;78.60
20492;DHT22;10404;51.468;6.762;2023-08-07T08:08:50;13.40;78.50
20492;DHT22;10404;51.468;6.762;2023-08-07T08:11:16;13.50;78.50
20492;DHT22;10404;51.468;6.762;2023-08-07T08:13:41;13.50;78.30
20492;DHT22;10404;51.468;6.762;2023-08-07T08:16:07;13.50;78.20
20492;DHT22;10404;51.468;6.762;2023-08-07T08:18:32;13.50;78.20
20492;DHT22;10404;51.468;6.762;2023-08-07T08:20:58;13.50;78.20
20492;DHT22;10404;51.468;6.762;2023-08-07T08:23:23;13.50;78.30
20492;DHT22;10404;51.468;6.762;2023-08-07T08:25:49;13.50;78.70
20492;DHT22;10404;51.468;6.762;2023-08-07T08:28:15;13.50;78.40
20492;DHT22;10404;51.468;6.762;2023-08-07T08:30:41;13.50;78.70
20492;DHT22;10404;51.468;6.762;2023-08-07T08:33:07;13.50;78.40
20492;DHT22;10404;51.468;6.762;2023-08-07T08:35:34;13.50;78.60
20492;DHT22;10404;51.468;6.762;2023-08-07T08:38:00;13.60;78.60
20492;DHT22;10404;51.468;6.762;2023-08-07T08:40:26;13.60;78.70
20492;DHT22;10404;51.468;6.762;2023-08-07T08:42:52;13.60;78.70
20492;DHT22;10404;51.468;6.762;2023-08-07T08:45:21;13.60;79.30
20492;DHT22;10404;51.468;6.762;2023-08-07T08:47:49;13.60;78.80
20492;DHT22;10404;51.468;6.762;2023-08-07T08:50:16;13.70;79.70
20492;DHT22;10404;51.468;6.762;2023-08-07T08:52:43;13.70;78.80
20492;DHT22;10404;51.468;6.762;2023-08-07T08:55:10;13.80;79.70
20492;DHT22;10404;51.468;6.762;2023-08-07T08:57:37;13.90;80.20
20492;DHT22;10404;51.468;6.762;2023-08-07T09:00:05;13.90;79.80
20492;DHT22;10404;51.468;6.762;2023-08-07T09:02:50;14.10;79.70
20492;DHT22;10404;51.468;6.762;2023-08-07T09:05:18;14.10;79.70
20492;DHT22;10404;51.468;6.762;2023-08-07T09:07:44;14.20;79.50
20492;DHT22;10404;51.468;6.762;2023-08-07T09:10:12;14.50;79.00
20492;DHT22;10404;51.468;6.762;2023-08-07T09:12:41;14.80;78.20
20492;DHT22;10404;51.468;6.762;2023-08-07T09:15:08;15.00;77.40
20492;DHT22;10404;51.468;6.762;2023-08-07T09:17:39;15.20;77.20
20492;DHT22;10404;51.468;6.762;2023-08-07T09:20:09;15.40;76.80
20492;DHT22;10404;51.468;6.762;2023-08-07T09:22:41;15.50;76.40
20492;DHT22;10404;51.468;6.762;2023-08-07T09:25:08;15.50;76.60
20492;DHT22;10404;51.468;6.762;2023-08-07T09:27:38;15.40;76.70
20492;DHT22;10404;51.468;6.762;2023-08-07T09:30:05;15.30;77.20
20492;DHT22;10404;51.468;6.762;2023-08-07T09:32:33;15.20;77.60
20492;DHT22;10404;51.468;6.762;2023-08-07T09:34:59;15.00;78.00
20492;DHT22;10404;51.468;6.762;2023-08-07T09:37:24;15.00;78.30
20492;DHT22;10404;51.468;6.762;2023-08-07T09:39:51;15.00;78.60
20492;DHT22;10404;51.468;6.762;2023-08-07T09:42:16;15.00;79.00
20492;DHT22;10404;51.468;6.762;2023-08-07T09:44:43;15.10;78.90
20492;DHT22;10404;51.468;6.762;2023-08-07T09:47:17;15.20;78.90
20492;DHT22;10404;51.468;6.762;2023-08-07T09:49:44;15.20;78.90
20492;DHT22;10404;51.468;6.762;2023-08-07T09:52:11;15.30;79.00
20492;DHT22;10404;51.468;6.762;2023-08-07T09:54:39;15.30;78.50
20492;DHT22;10404;51.468;6.762;2023-08-07T09:57:05;15.40;78.10
20492;DHT22;10404;51.468;6.762;2023-08-07T09:59:33;15.50;78.20
20492;DHT22;10404;51.468;6.762;2023-08-07T10:02:00;15.60;78.10
20492;DHT22;10404;51.468;6.762;2023-08-07T10:04:27;16.00;77.40
20492;DHT22;10404;51.468;6.762;2023-08-07T10:06:53;16.20;76.50
20492;DHT22;10404;51.468;6.762;2023-08-07T10:09:20;16.30;76.10
20492;DHT22;10404;51.468;6.762;2023-08-07T10:11:46;16.40;76.10
20492;DHT22;10404;51.468;6.762;2023-08-07T10:14:14;16.40;76.30
20492;DHT22;10404;51.468;6.762;2023-08-07T10:16:40;16.50;75.90
20492;DHT22;10404;51.468;6.762;2023-08-07T10:19:07;16.60;75.80
20492;DHT22;10404;51.468;6.762;2023-08-07T10:21:39;16.60;75.40
20492;DHT22;10404;51.468;6.762;2023-08-07T10:24:05;16.70;75.20
20492;DHT22;10404;51.468;6.762;2023-08-07T10:26:37;16.60;75.30
20492;DHT22;10404;51.468;6.762;2023-08-07T10:29:07;16.50;75.70
20492;DHT22;10404;51.468;6.762;2023-08-07T10:31:34;16.50;75.70
20492;DHT22;10404;51.468;6.762;2023-08-07T10:34:01;16.40;76.10
20492;DHT22;10404;51.468;6.762;2023-08-07T10:36:34;16.40;76.20
20492;DHT22;10404;51.468;6.762;2023-08-07T10:39:10;16.40;76.50
20492;DHT22;10404;51.468;6.762;2023-08-07T10:41:42;16.40;76.40
20492;DHT22;10404;51.468;6.762;2023-08-07T10:44:29;16.30;76.80
20492;DHT22;10404;51.468;6.762;2023-08-07T10:46:57;16.30;76.80
20492;DHT22;10404;51.468;6.762;2023-08-07T10:49:40;16.20;77.00
20492;DHT22;10404;51.468;6.762;2023-08-07T10:52:14;16.20;77.10
20492;DHT22;10404;51.468;6.762;2023-08-07T10:54:48;16.20;77.30
20492;DHT22;10404;51.468;6.762;2023-08-07T10:57:15;16.20;77.60
20492;DHT22;10404;51.468;6.762;2023-08-07T11:00:04;16.20;77.70
20492;DHT22;10404;51.468;6.762;2023-08-07T11:02:31;16.20;77.30
20492;DHT22;10404;51.468;6.762;2023-08-07T11:04:58;16.40;77.20
20492;DHT22;10404;51.468;6.762;2023-08-07T11:07:26;16.70;76.40
20492;DHT22;10404;51.468;6.762;2023-08-07T11:09:57;16.90;75.60
20492;DHT22;10404;51.468;6.762;2023-08-07T11:12:27;17.10;74.90
20492;DHT22;10404;51.468;6.762;2023-08-07T11:14:53;17.30;74.70
20492;DHT22;10404;51.468;6.762;2023-08-07T11:17:27;17.40;73.70
20492;DHT22;10404;51.468;6.762;2023-08-07T11:19:53;17.40;73.70
20492;DHT22;10404;51.468;6.762;2023-08-07T11:22:22;17.40;74.00
20492;DHT22;10404;51.468;6.762;2023-08-07T11:24:49;17.20;74.20
20492;DHT22;10404;51.468;6.762;2023-08-07T11:27:15;17.20;74.20
20492;DHT22;10404;51.468;6.762;2023-08-07T11:29:41;17.20;74.50
20492;DHT22;10404;51.468;6.762;2023-08-07T11:32:08;17.00;74.60
20492;DHT22;10404;51.468;6.762;2023-08-07T11:34:33;17.00;75.20
20492;DHT22;10404;51.468;6.762;2023-08-07T11:36:59;17.00;75.30
20492;DHT22;10404;51.468;6.762;2023-08-07T11:39:26;17.00;75.20
20492;DHT22;10404;51.468;6.762;2023-08-07T11:41:51;17.00;74.60
20492;DHT22;10404;51.468;6.762;2023-08-07T11:44:18;17.10;74.60
20492;DHT22;10404;51.468;6.762;2023-08-07T11:46:44;17.20;74.10
20492;DHT22;10404;51.468;6.762;2023-08-07T11:49:09;17.40;74.00
20492;DHT22;10404;51.468;6.762;2023-08-07T11:51:35;17.50;73.60
20492;DHT22;10404;51.468;6.762;2023-08-07T11:54:02;17.70;73.40
20492;DHT22;10404;51.468;6.762;2023-08-07T11:56:27;17.80;72.70
20492;DHT22;10404;51.468;6.762;2023-08-07T11:58:53;17.80;72.50
20492;DHT22;10404;51.468;6.762;2023-08-07T12:01:23;17.80;72.00
20492;DHT22;10404;51.468;6.762;2023-08-07T12:03:54;17.90;72.20
20492;DHT22;10404;51.468;6.762;2023-08-07T12:06:26;18.00;71.90
20492;DHT22;10404;51.468;6.762;2023-08-07T12:08:55;18.00;72.40
20492;DHT22;10404;51.468;6.762;2023-08-07T12:11:21;18.20;72.40
20492;DHT22;10404;51.468;6.762;2023-08-07T12:13:47;18.30;72.20
20492;DHT22;10404;51.468;6.762;2023-08-07T12:16:14;18.40;71.00
20492;DHT22;10404;51.468;6.762;2023-08-07T12:18:45;18.50;70.60
20492;DHT22;10404;51.468;6.762;2023-08-07T12:21:14;18.60;70.20
20492;DHT22;10404;51.468;6.762;2023-08-07T12:23:39;18.60;70.10
20492;DHT22;10404;51.468;6.762;2023-08-07T12:26:06;18.70;69.90
20492;DHT22;10404;51.468;6.762;2023-08-07T12:28:33;18.90;70.30
20492;DHT22;10404;51.468;6.762;2023-08-07T12:30:59;19.00;69.50
20492;DHT22;10404;51.468;6.762;2023-08-07T12:33:25;19.10;69.80
20492;DHT22;10404;51.468;6.762;2023-08-07T12:35:51;19.10;68.20
20492;DHT22;10404;51.468;6.762;2023-08-07T12:38:18;19.20;68.30
20492;DHT22;10404;51.468;6.762;2023-08-07T12:40:44;19.30;69.10
20492;DHT22;10404;51.468;6.762;2023-08-07T12:43:10;19.30;69.10
20492;DHT22;10404;51.468;6.762;2023-08-07T12:45:35;19.40;68.40
20492;DHT22;10404;51.468;6.762;2023-08-07T12:48:01;19.50;67.50
20492;DHT22;10404;51.468;6.762;2023-08-07T12:50:27;19.50;68.00
20492;DHT22;10404;51.468;6.762;2023-08-07T12:52:53;19.60;68.40
20492;DHT22;10404;51.468;6.762;2023-08-07T12:55:19;19.70;68.20
20492;DHT22;10404;51.468;6.762;2023-08-07T12:57:45;19.70;68.00
20492;DHT22;10404;51.468;6.762;2023-08-07T13:00:11;19.70;68.00
20492;DHT22;10404;51.468;6.762;2023-08-07T13:02:43;19.80;68.00
20492;DHT22;10404;51.468;6.762;2023-08-07T13:05:09;19.90;67.60
20492;DHT22;10404;51.468;6.762;2023-08-07T13:07:36;20.00;67.00
20492;DHT22;10404;51.468;6.762;2023-08-07T13:10:04;20.00;66.90
20492;DHT22;10404;51.468;6.762;2023-08-07T13:12:30;20.10;66.30
20492;DHT22;10404;51.468;6.762;2023-08-07T13:14:59;20.10;66.00
20492;DHT22;10404;51.468;6.762;2023-08-07T13:17:25;20.30;65.60
20492;DHT22;10404;51.468;6.762;2023-08-07T13:19:50;20.30;66.40
20492;DHT22;10404;51.468;6.762;2023-08-07T13:22:16;20.40;64.50
20492;DHT22;10404;51.468;6.762;2023-08-07T13:24:41;20.50;65.80
20492;DHT22;10404;51.468;6.762;2023-08-07T13:27:07;20.60;64.40
20492;DHT22;10404;51.468;6.762;2023-08-07T13:29:32;20.70;64.70
20492;DHT22;10404;51.468;6.762;2023-08-07T13:31:58;20.80;63.90
20492;DHT22;10404;51.468;6.762;2023-08-07T13:34:24;20.70;58.10
20492;DHT22;10404;51.468;6.762;2023-08-07T13:36:50;20.70;57.90
20492;DHT22;10404;51.468;6.762;2023-08-07T13:39:15;20.80;58.90
20492;DHT22;10404;51.468;6.762;2023-08-07T13:41:41;20.90;60.60
20492;DHT22;10404;51.468;6.762;2023-08-07T13:44:07;21.10;60.00
20492;DHT22;10404;51.468;6.762;2023-08-07T13:46:32;21.30;61.40
20492;DHT22;10404;51.468;6.762;2023-08-07T13:48:58;21.40;59.70
20492;DHT22;10404;51.468;6.762;2023-08-07T13:51:23;21.50;59.00
20492;DHT22;10404;51.468;6.762;2023-08-07T13:53:49;21.60;61.40
20492;DHT22;10404;51.468;6.762;2023-08-07T13:56:17;21.70;59.80
20492;DHT22;10404;51.468;6.762;2023-08-07T13:58:43;21.90;58.70
20492;DHT22;10404;51.468;6.762;2023-08-07T14:01:08;21.90;58.30
20492;DHT22;10404;51.468;6.762;2023-08-07T14:03:34;22.00;58.00
20492;DHT22;10404;51.468;6.762;2023-08-07T14:06:00;22.00;60.00
20492;DHT22;10404;51.468;6.762;2023-08-07T14:08:26;22.10;58.80
20492;DHT22;10404;51.468;6.762;2023-08-07T14:10:53;22.10;57.70
20492;DHT22;10404;51.468;6.762;2023-08-07T14:13:18;22.20;57.30
20492;DHT22;10404;51.468;6.762;2023-08-07T14:15:44;22.20;58.20
20492;DHT22;10404;51.468;6.762;2023-08-07T14:18:10;22.30;57.20
20492;DHT22;10404;51.468;6.762;2023-08-07T14:20:40;22.30;57.50
20492;DHT22;10404;51.468;6.762;2023-08-07T14:23:06;22.50;57.30
20492;DHT22;10404;51.468;6.762;2023-08-07T14:25:31;22.50;56.70
20492;DHT22;10404;51.468;6.762;2023-08-07T14:27:57;22.50;57.60
20492;DHT22;10404;51.468;6.762;2023-08-07T14:30:22;22.60;57.20
20492;DHT22;10404;51.468;6.762;2023-08-07T14:32:48;22.70;58.00
20492;DHT22;10404;51.468;6.762;2023-08-07T14:35:13;22.80;57.60
20492;DHT22;10404;51.468;6.762;2023-08-07T14:37:40;22.90;56.90
20492;DHT22;10404;51.468;6.762;2023-08-07T14:40:06;22.90;56.90
20492;DHT22;10404;51.468;6.762;2023-08-07T14:42:32;23.00;57.90
20492;DHT22;10404;51.468;6.762;2023-08-07T14:44:58;23.10;56.50
20492;DHT22;10404;51.468;6.762;2023-08-07T14:47:24;23.20;56.20
20492;DHT22;10404;51.468;6.762;2023-08-07T14:49:50;23.20;55.00
20492;DHT22;10404;51.468;6.762;2023-08-07T14:52:16;23.30;54.90
20492;DHT22;10404;51.468;6.762;2023-08-07T14:54:41;23.40;55.30
20492;DHT22;10404;51.468;6.762;2023-08-07T14:57:07;23.50;54.90
20492;DHT22;10404;51.468;6.762;2023-08-07T14:59:32;23.50;52.70
20492;DHT22;10404;51.468;6.762;2023-08-07T15:01:58;23.10;48.90
20492;DHT22;10404;51.468;6.762;2023-08-07T15:04:24;23.10;48.90
20492;DHT22;10404;51.468;6.762;2023-08-07T15:06:49;23.20;49.70
20492;DHT22;10404;51.468;6.762;2023-08-07T15:09:16;23.40;50.90
20492;DHT22;10404;51.468;6.762;2023-08-07T15:11:42;23.50;50.70
20492;DHT22;10404;51.468;6.762;2023-08-07T15:14:08;23.60;51.00
20492;DHT22;10404;51.468;6.762;2023-08-07T15:16:34;23.60;50.70
20492;DHT22;10404;51.468;6.762;2023-08-07T15:19:01;23.60;50.70
20492;DHT22;10404;51.468;6.762;2023-08-07T15:21:26;23.60;51.00
20492;DHT22;10404;51.468;6.762;2023-08-07T15:23:52;23.70;51.20
20492;DHT22;10404;51.468;6.762;2023-08-07T15:26:17;23.70;50.70
20492;DHT22;10404;51.468;6.762;2023-08-07T15:28:43;23.70;51.10
20492;DHT22;10404;51.468;6.762;2023-08-07T15:31:09;23.80;50.80